Time;durP1;ratioP1;P1;durP2;ratioP2;P2;SDS_P1;SDS_P2;PMS_P1;PMS_P2;Temp;Humidity;BMP_temperature;BMP_pressure;BME280_temperature;BME280_humidity;BME280_pressure;Samples;Min_cycle;Max_cycle;Signal;HPM_P1;HPM_P2
2022/11/24 00:00:47;;;;;;;22.10;10.98;;;7.70;99.90;;;;;;5036894;28;20052;-82
2022/11/24 00:03:13;;;;;;;22.77;11.55;;;7.70;99.90;;;;;;5019762;28;20393;-83
2022/11/24 00:05:40;;;;;;;23.08;11.07;;;7.70;99.90;;;;;;5054469;28;20131;-83
2022/11/24 00:08:05;;;;;;;23.67;10.77;;;7.70;99.90;;;;;;5054180;28;20138;-82
2022/11/24 00:10:32;;;;;;;23.20;12.20;;;7.60;99.90;;;;;;5019790;28;20084;-83
2022/11/24 00:12:57;;;;;;;20.90;10.35;;;7.50;99.90;;;;;;5036445;28;20045;-83
2022/11/24 00:15:23;;;;;;;20.98;10.45;;;8.60;99.90;;;;;;5019524;28;20102;-83
2022/11/24 00:17:49;;;;;;;19.67;10.20;;;7.40;99.90;;;;;;5036494;28;20052;-83
2022/11/24 00:20:14;;;;;;;24.65;10.18;;;7.40;99.90;;;;;;5019250;28;20057;-84
2022/11/24 00:22:40;;;;;;;26.17;10.10;;;7.40;99.90;;;;;;5036467;28;20122;-83
2022/11/24 00:25:06;;;;;;;19.40;8.85;;;7.40;99.90;;;;;;5020145;28;20051;-83
2022/11/24 00:27:32;;;;;;;21.15;10.52;;;7.30;99.90;;;;;;5052779;28;20132;-83
2022/11/24 00:29:58;;;;;;;23.30;9.55;;;7.40;99.90;;;;;;5040730;28;20044;-82
2022/11/24 00:32:27;;;;;;;21.52;9.27;;;7.30;99.90;;;;;;5037288;28;20053;-83
2022/11/24 00:34:52;;;;;;;21.80;9.50;;;7.30;99.90;;;;;;5036429;28;20064;-82
2022/11/24 00:37:18;;;;;;;20.83;9.55;;;7.30;99.90;;;;;;5019307;28;20067;-81
2022/11/24 00:39:44;;;;;;;25.67;8.65;;;7.20;99.90;;;;;;5037639;28;20473;-81
2022/11/24 00:42:10;;;;;;;19.15;8.70;;;7.30;99.90;;;;;;5053244;28;20449;-82
2022/11/24 00:44:35;;;;;;;21.20;9.50;;;7.30;99.90;;;;;;5035535;28;20126;-83
2022/11/24 00:47:01;;;;;;;22.42;8.68;;;7.20;99.90;;;;;;5019147;28;20409;-83
2022/11/24 00:49:26;;;;;;;22.63;8.68;;;7.20;99.90;;;;;;5034849;28;20052;-82
2022/11/24 00:51:52;;;;;;;18.60;8.80;;;7.10;99.90;;;;;;5018895;28;20136;-83
2022/11/24 00:54:18;;;;;;;19.88;8.63;;;7.10;99.90;;;;;;5019061;28;20040;-82
2022/11/24 00:56:45;;;;;;;20.33;8.30;;;7.20;99.90;;;;;;5019184;28;20045;-83
2022/11/24 00:59:10;;;;;;;24.40;8.43;;;7.20;99.90;;;;;;5052156;28;20044;-82
2022/11/24 01:01:36;;;;;;;19.02;8.23;;;7.10;99.90;;;;;;5034775;28;20053;-82
2022/11/24 01:04:02;;;;;;;21.35;7.78;;;7.10;99.90;;;;;;5035514;28;20056;-82
2022/11/24 01:06:28;;;;;;;20.55;8.52;;;7.10;99.90;;;;;;5051255;28;20099;-83
2022/11/24 01:08:55;;;;;;;23.83;7.15;;;7.00;99.90;;;;;;5019065;28;20045;-82
2022/11/24 01:11:25;;;;;;;29.60;8.73;;;7.00;99.90;;;;;;5035290;28;20095;-83
2022/11/24 01:13:53;;;;;;;25.52;7.35;;;7.00;99.90;;;;;;5018881;28;20075;-82
2022/11/24 01:16:21;;;;;;;23.90;7.93;;;7.00;99.90;;;;;;5019443;28;20051;-82
2022/11/24 01:18:47;;;;;;;21.10;7.78;;;6.90;99.90;;;;;;5035094;28;20106;-82
2022/11/24 01:21:13;;;;;;;21.55;7.43;;;7.00;99.90;;;;;;5018895;28;20056;-83
2022/11/24 01:23:39;;;;;;;21.00;7.15;;;7.00;99.90;;;;;;5034720;28;20409;-83
2022/11/24 01:26:06;;;;;;;25.92;8.07;;;7.00;99.90;;;;;;5051642;28;20086;-83
2022/11/24 01:28:31;;;;;;;25.42;8.15;;;6.90;99.90;;;;;;5018002;28;20049;-82
2022/11/24 01:31:00;;;;;;;21.27;7.88;;;7.70;99.90;;;;;;5017715;28;20186;-83
2022/11/24 01:33:26;;;;;;;24.25;6.97;;;6.90;99.90;;;;;;5039879;28;20163;-83
2022/11/24 01:35:51;;;;;;;22.38;6.60;;;7.00;99.90;;;;;;5021115;28;20485;-82
2022/11/24 01:38:17;;;;;;;26.83;8.07;;;6.90;99.90;;;;;;5018710;28;20385;-83
2022/11/24 01:40:43;;;;;;;22.20;6.63;;;6.90;99.90;;;;;;5017726;28;20055;-83
2022/11/24 01:43:19;;;;;;;17.88;5.63;;;6.90;99.90;;;;;;5051224;28;20091;-82
2022/11/24 01:45:46;;;;;;;22.52;6.05;;;7.90;99.90;;;;;;5019060;28;20049;-83
2022/11/24 01:48:26;;;;;;;23.25;6.55;;;7.00;99.90;;;;;;5022838;28;20068;-82
2022/11/24 01:51:16;;;;;;;20.85;6.53;;;7.00;99.90;;;;;;5034662;28;20057;-82
2022/11/24 01:53:43;;;;;;;24.90;6.47;;;7.00;99.90;;;;;;5036893;28;20055;-82
2022/11/24 01:56:10;;;;;;;22.70;6.18;;;7.00;99.90;;;;;;5044129;28;20041;-83
2022/11/24 01:58:36;;;;;;;19.00;5.63;;;7.10;99.90;;;;;;5061115;28;20094;-83
2022/11/24 02:01:01;;;;;;;26.20;5.22;;;7.20;99.90;;;;;;5025754;28;20433;-83
2022/11/24 02:03:29;;;;;;;23.70;5.93;;;7.20;99.90;;;;;;5060613;28;20040;-83
2022/11/24 02:06:01;;;;;;;25.25;5.88;;;7.20;99.90;;;;;;5042653;28;20120;-82
2022/11/24 02:09:00;;;;;;;20.25;5.63;;;7.20;99.90;;;;;;5043516;28;20040;-83
2022/11/24 02:11:27;;;;;;;29.95;6.85;;;7.20;99.90;;;;;;5027286;28;20057;-83
2022/11/24 02:13:53;;;;;;;21.10;5.13;;;7.20;99.90;;;;;;5025537;28;20045;-83
2022/11/24 02:16:19;;;;;;;19.23;4.53;;;7.20;99.90;;;;;;5027603;28;20044;-83
2022/11/24 02:18:44;;;;;;;22.98;4.85;;;7.30;99.90;;;;;;5043727;28;20048;-81
2022/11/24 02:21:11;;;;;;;23.42;4.88;;;8.20;99.90;;;;;;5049287;28;20053;-82
2022/11/24 02:24:14;;;;;;;21.13;4.82;;;7.20;99.90;;;;;;5051126;28;20059;-83
2022/11/24 02:26:41;;;;;;;21.25;4.72;;;7.10;99.90;;;;;;5048577;28;20511;-82
2022/11/24 02:29:09;;;;;;;20.85;4.55;;;7.00;99.90;;;;;;5034354;28;20049;-83
2022/11/24 02:31:35;;;;;;;20.70;4.88;;;7.00;99.90;;;;;;5043951;28;20040;-84
2022/11/24 02:34:00;;;;;;;15.88;4.43;;;7.00;99.90;;;;;;5054451;28;20049;-83
2022/11/24 02:36:26;;;;;;;20.40;4.43;;;6.90;99.90;;;;;;5038007;28;20079;-82
2022/11/24 02:38:52;;;;;;;24.33;5.43;;;6.90;99.90;;;;;;5037081;28;20340;-84
2022/11/24 02:41:19;;;;;;;20.52;5.22;;;6.90;99.90;;;;;;5037381;28;20045;-84
2022/11/24 02:43:56;;;;;;;24.20;4.93;;;6.90;99.90;;;;;;5037068;28;20250;-83
2022/11/24 02:46:21;;;;;;;24.42;5.18;;;6.90;99.90;;;;;;5037540;28;20048;-83
2022/11/24 02:48:47;;;;;;;20.52;4.70;;;6.90;99.90;;;;;;5036270;28;20053;-82
2022/11/24 02:51:13;;;;;;;18.20;5.38;;;6.80;99.90;;;;;;5037570;28;20080;-83
2022/11/24 02:53:38;;;;;;;21.65;4.90;;;6.70;99.90;;;;;;5041041;28;20052;-84
2022/11/24 02:56:04;;;;;;;22.05;6.00;;;6.80;99.90;;;;;;5055671;28;20048;-84
2022/11/24 02:58:30;;;;;;;21.33;4.65;;;6.70;99.90;;;;;;5037601;28;20060;-83
2022/11/24 03:00:56;;;;;;;23.40;5.03;;;6.70;99.90;;;;;;5037118;28;20051;-84
2022/11/24 03:03:22;;;;;;;25.23;5.10;;;6.70;99.90;;;;;;5037567;28;20036;-84
2022/11/24 03:05:49;;;;;;;19.83;4.78;;;7.10;99.90;;;;;;5053201;28;20086;-83
2022/11/24 03:08:15;;;;;;;22.40;4.97;;;7.00;99.90;;;;;;5043077;28;20059;-82
2022/11/24 03:10:40;;;;;;;25.80;5.20;;;6.80;99.90;;;;;;5054895;28;20056;-83
2022/11/24 03:13:06;;;;;;;26.08;5.50;;;6.80;99.90;;;;;;5071687;28;20059;-83
2022/11/24 03:15:32;;;;;;;31.38;5.35;;;6.80;99.90;;;;;;5053851;28;20058;-83
2022/11/24 03:17:57;;;;;;;29.23;4.97;;;6.70;99.90;;;;;;5036789;28;20194;-84
2022/11/24 03:20:23;;;;;;;20.33;4.65;;;6.80;99.90;;;;;;5036577;28;20048;-81
2022/11/24 03:22:49;;;;;;;23.65;5.32;;;6.80;99.90;;;;;;5069593;28;20044;-82
2022/11/24 03:25:14;;;;;;;28.83;5.10;;;6.70;99.90;;;;;;5053728;28;20044;-83
2022/11/24 03:27:40;;;;;;;18.58;4.43;;;6.70;99.90;;;;;;5036381;28;20056;-83
2022/11/24 03:30:06;;;;;;;17.90;4.65;;;6.80;99.90;;;;;;5071209;28;20088;-83
2022/11/24 03:32:32;;;;;;;25.90;4.75;;;6.80;99.90;;;;;;5053714;28;20147;-83
2022/11/24 03:34:58;;;;;;;17.17;5.60;;;6.80;99.90;;;;;;5069724;28;20481;-82
2022/11/24 03:37:23;;;;;;;27.95;5.28;;;6.80;99.90;;;;;;5036906;28;20074;-82
2022/11/24 03:39:49;;;;;;;24.13;4.68;;;6.90;99.90;;;;;;5036615;28;20045;-83
2022/11/24 03:42:15;;;;;;;21.60;5.10;;;6.90;99.90;;;;;;5053436;28;20051;-83
2022/11/24 03:44:40;;;;;;;16.25;4.15;;;6.90;99.90;;;;;;5053034;28;20078;-83
2022/11/24 03:47:06;;;;;;;24.00;4.50;;;7.00;99.90;;;;;;5069859;28;20124;-83
2022/11/24 03:49:32;;;;;;;20.70;5.30;;;7.10;99.90;;;;;;5035934;28;20143;-83
2022/11/24 03:51:57;;;;;;;21.15;5.30;;;7.10;99.90;;;;;;5036542;28;20061;-83
2022/11/24 03:54:23;;;;;;;16.13;4.05;;;7.10;99.90;;;;;;5054735;28;20052;-83
2022/11/24 03:56:49;;;;;;;19.80;4.30;;;7.10;99.90;;;;;;5039496;28;20041;-81
2022/11/24 03:59:15;;;;;;;18.77;3.95;;;7.10;99.90;;;;;;5074591;28;20040;-83
2022/11/24 04:01:41;;;;;;;18.77;4.68;;;7.20;99.90;;;;;;5040189;28;20051;-83
2022/11/24 04:04:10;;;;;;;22.40;5.78;;;7.10;99.90;;;;;;5072749;28;20049;-83
2022/11/24 04:06:36;;;;;;;17.67;3.83;;;7.10;99.90;;;;;;5056736;28;20052;-84
2022/11/24 04:09:02;;;;;;;23.08;4.40;;;7.00;99.90;;;;;;5038916;28;20036;-82
2022/11/24 04:14:11;;;;;;;15.35;3.60;;;6.90;99.90;;;;;;5043102;28;20108;-83
2022/11/24 04:16:37;;;;;;;17.65;3.63;;;6.90;99.90;;;;;;5074306;28;20124;-83
2022/11/24 04:19:02;;;;;;;22.42;4.57;;;6.90;99.90;;;;;;5072568;28;20044;-82
2022/11/24 04:21:28;;;;;;;16.75;3.50;;;6.90;99.90;;;;;;5039713;28;20464;-81
2022/11/24 04:23:54;;;;;;;18.35;4.22;;;6.90;99.90;;;;;;5041052;28;20037;-81
2022/11/24 04:26:19;;;;;;;19.17;3.95;;;6.80;99.90;;;;;;5045600;28;20071;-83
2022/11/24 04:28:45;;;;;;;18.60;3.55;;;6.80;99.90;;;;;;5062267;28;20442;-83
2022/11/24 04:31:11;;;;;;;19.98;5.43;;;6.80;99.90;;;;;;5055694;28;20040;-84
2022/11/24 04:33:36;;;;;;;20.98;4.15;;;6.80;99.90;;;;;;5039345;28;20044;-83
2022/11/24 04:36:02;;;;;;;17.63;4.03;;;6.90;99.90;;;;;;5055383;28;20496;-82
2022/11/24 04:38:28;;;;;;;20.73;3.47;;;6.80;99.90;;;;;;5023011;28;20044;-83
2022/11/24 04:40:54;;;;;;;15.02;3.70;;;6.80;99.90;;;;;;5055452;28;20087;-83
2022/11/24 04:43:20;;;;;;;24.83;4.30;;;6.70;99.90;;;;;;5055965;28;20045;-82
2022/11/24 04:45:46;;;;;;;20.85;3.97;;;6.70;99.90;;;;;;5039326;28;20087;-83
2022/11/24 04:48:12;;;;;;;19.63;3.60;;;6.80;99.90;;;;;;5034778;28;20092;-81
2022/11/24 04:50:38;;;;;;;16.02;3.88;;;6.80;99.90;;;;;;5068983;28;20052;-82
2022/11/24 04:53:04;;;;;;;18.08;3.83;;;6.70;99.90;;;;;;5050881;28;20056;-82
2022/11/24 04:55:30;;;;;;;22.60;3.42;;;6.60;99.90;;;;;;5052339;28;20103;-82
2022/11/24 04:57:56;;;;;;;15.07;3.28;;;6.60;99.90;;;;;;5035390;28;20099;-83
2022/11/24 05:00:21;;;;;;;16.35;3.95;;;6.60;99.90;;;;;;5052181;28;20040;-83
2022/11/24 05:02:47;;;;;;;20.25;3.47;;;6.60;99.90;;;;;;5053390;28;20053;-83
2022/11/24 05:05:12;;;;;;;14.98;4.07;;;6.90;99.90;;;;;;5067677;28;20053;-82
2022/11/24 05:07:38;;;;;;;17.25;3.00;;;6.80;99.90;;;;;;5035457;28;20037;-84
2022/11/24 05:12:55;;;;;;;;;;;6.60;99.90;;;;;;5052608;28;20048;-82
2022/11/24 05:15:21;;;;;;;13.00;3.20;;;6.50;99.90;;;;;;5051999;28;19971;-83
2022/11/24 05:17:46;;;;;;;16.55;2.92;;;6.50;99.90;;;;;;5034941;28;20083;-83
2022/11/24 05:20:12;;;;;;;14.00;3.20;;;6.40;99.90;;;;;;5034773;28;20416;-83
2022/11/24 05:22:38;;;;;;;14.65;3.10;;;6.40;99.90;;;;;;5034932;28;20451;-82
2022/11/24 05:25:03;;;;;;;18.77;3.50;;;6.40;99.90;;;;;;5051387;28;20513;-83
2022/11/24 05:27:29;;;;;;;11.90;3.30;;;6.40;99.90;;;;;;5034900;28;20052;-83
2022/11/24 05:29:55;;;;;;;13.68;3.40;;;6.30;99.90;;;;;;5034809;28;20045;-82
2022/11/24 05:32:20;;;;;;;20.02;4.45;;;6.30;99.90;;;;;;5035334;28;20049;-82
2022/11/24 05:34:46;;;;;;;18.80;3.42;;;6.30;99.90;;;;;;5034761;28;20053;-83
2022/11/24 05:37:12;;;;;;;16.33;3.75;;;6.20;99.90;;;;;;5018427;28;20061;-81
2022/11/24 05:39:38;;;;;;;16.35;3.90;;;6.30;99.90;;;;;;5051367;28;20377;-83
2022/11/24 05:42:39;;;;;;;14.57;3.28;;;6.20;99.90;;;;;;5051354;28;20151;-82
2022/11/24 05:44:50;;;;;;;19.48;3.78;;;6.20;99.90;;;;;;5037001;28;20053;-82
2022/11/24 05:47:16;;;;;;;24.88;3.63;;;6.20;99.90;;;;;;5035318;28;20818;-82
2022/11/24 05:49:42;;;;;;;16.63;3.42;;;6.30;99.90;;;;;;5033957;28;20155;-83
2022/11/24 05:52:08;;;;;;;21.65;3.75;;;6.50;99.90;;;;;;5050867;28;20044;-83
2022/11/24 05:54:33;;;;;;;20.77;3.75;;;6.10;99.90;;;;;;5034341;28;20047;-83
2022/11/24 05:56:59;;;;;;;17.13;3.33;;;6.10;99.90;;;;;;5034171;28;20049;-82
2022/11/24 05:59:25;;;;;;;15.38;3.55;;;6.10;99.90;;;;;;5017491;28;20044;-82
2022/11/24 06:01:50;;;;;;;17.30;3.25;;;6.00;99.90;;;;;;5033791;28;20111;-81
2022/11/24 06:04:16;;;;;;;18.02;3.92;;;6.90;99.90;;;;;;5050148;28;20055;-82
2022/11/24 06:06:41;;;;;;;17.25;3.75;;;6.00;99.90;;;;;;5050690;28;20044;-84
2022/11/24 06:09:07;;;;;;;20.05;3.97;;;6.10;99.90;;;;;;5033816;28;20487;-83
2022/11/24 06:11:33;;;;;;;21.58;3.47;;;6.00;99.90;;;;;;5051020;28;20519;-82
2022/11/24 06:13:59;;;;;;;25.13;3.50;;;6.40;99.90;;;;;;5034585;28;20385;-82
2022/11/24 06:16:24;;;;;;;23.77;3.50;;;6.00;99.90;;;;;;5050109;28;20104;-83
2022/11/24 06:18:51;;;;;;;23.00;3.28;;;6.00;99.90;;;;;;5034404;28;20053;-83
2022/11/24 06:21:17;;;;;;;24.75;5.72;;;6.00;99.90;;;;;;5049827;28;20481;-84
2022/11/24 06:23:43;;;;;;;21.75;4.22;;;5.90;99.90;;;;;;5034448;28;20048;-83
2022/11/24 06:26:08;;;;;;;17.23;3.50;;;6.00;99.90;;;;;;5020683;28;20065;-82
2022/11/24 06:28:34;;;;;;;19.67;3.67;;;5.90;99.90;;;;;;5068669;28;20052;-83
2022/11/24 06:31:03;;;;;;;13.52;3.50;;;5.90;99.90;;;;;;5045888;28;20105;-83
2022/11/24 06:33:32;;;;;;;23.05;3.95;;;6.60;99.90;;;;;;5042650;28;20065;-83
2022/11/24 06:36:03;;;;;;;16.90;3.45;;;6.00;99.90;;;;;;5050775;28;20072;-83
2022/11/24 06:38:29;;;;;;;19.02;4.05;;;5.90;99.90;;;;;;5033936;28;20057;-82
2022/11/24 06:41:02;;;;;;;13.32;2.92;;;6.30;99.90;;;;;;5033857;28;20048;-83
2022/11/24 06:43:28;;;;;;;31.38;3.92;;;5.90;99.90;;;;;;5033179;28;20053;-83
2022/11/24 06:45:55;;;;;;;16.42;3.28;;;5.90;99.90;;;;;;5033834;28;20063;-83
2022/11/24 06:48:22;;;;;;;20.27;4.95;;;5.90;99.90;;;;;;5036721;28;20064;-84
2022/11/24 06:50:47;;;;;;;33.13;6.38;;;5.90;99.90;;;;;;5030720;28;20056;-81
2022/11/24 06:53:14;;;;;;;22.50;4.20;;;6.80;99.90;;;;;;5017278;28;20049;-81
2022/11/24 06:55:39;;;;;;;18.38;4.53;;;5.90;99.90;;;;;;5017972;28;20114;-83
2022/11/24 06:58:05;;;;;;;18.95;3.90;;;6.00;99.90;;;;;;5033809;28;20049;-83
2022/11/24 07:00:31;;;;;;;19.95;3.50;;;6.20;99.90;;;;;;5034093;28;20095;-83
2022/11/24 07:03:00;;;;;;;20.08;3.90;;;6.10;99.90;;;;;;5033637;28;20053;-83
2022/11/24 07:05:26;;;;;;;20.23;5.35;;;6.30;99.90;;;;;;5033487;28;20485;-83
2022/11/24 07:07:51;;;;;;;16.15;3.55;;;6.10;99.90;;;;;;5033778;28;20051;-83
2022/11/24 07:10:17;;;;;;;17.52;3.50;;;6.10;99.90;;;;;;5033504;28;20049;-83
2022/11/24 07:12:43;;;;;;;19.42;3.88;;;6.10;99.90;;;;;;5033991;28;20076;-83
2022/11/24 07:15:09;;;;;;;16.90;3.67;;;6.10;99.90;;;;;;5016537;28;20041;-84
2022/11/24 07:17:38;;;;;;;18.67;3.78;;;6.20;99.90;;;;;;5034163;28;20076;-83
2022/11/24 07:20:04;;;;;;;20.83;4.15;;;6.10;99.90;;;;;;5033408;28;20558;-82
2022/11/24 07:22:30;;;;;;;20.85;4.07;;;6.10;99.90;;;;;;5000480;28;20071;-83
2022/11/24 07:24:56;;;;;;;22.55;4.82;;;7.30;99.90;;;;;;5033459;28;20044;-82
2022/11/24 07:27:21;;;;;;;22.42;4.40;;;6.50;99.90;;;;;;5016809;28;20049;-84
2022/11/24 07:29:47;;;;;;;14.13;3.95;;;7.30;99.90;;;;;;5020728;28;20073;-83
2022/11/24 07:32:13;;;;;;;15.65;4.38;;;6.10;99.90;;;;;;5037871;28;20041;-83
2022/11/24 07:34:38;;;;;;;9.77;3.58;;;6.10;99.90;;;;;;5037371;28;20052;-82
2022/11/24 07:37:04;;;;;;;22.35;4.70;;;6.10;99.90;;;;;;5036771;28;20068;-83
2022/11/24 07:39:29;;;;;;;18.58;3.67;;;7.30;99.90;;;;;;5020731;28;20082;-83
2022/11/24 07:41:56;;;;;;;21.17;4.55;;;6.20;99.90;;;;;;5037030;28;20045;-83
2022/11/24 07:44:22;;;;;;;23.75;4.28;;;6.20;99.90;;;;;;5020476;28;20053;-83
2022/11/24 07:46:50;;;;;;;24.85;4.93;;;6.20;99.90;;;;;;5036704;28;20438;-82
2022/11/24 07:49:16;;;;;;;15.90;4.07;;;6.20;99.90;;;;;;5053729;28;20093;-83
2022/11/24 07:51:41;;;;;;;21.42;4.22;;;6.20;99.90;;;;;;5021296;28;20413;-83
2022/11/24 07:54:07;;;;;;;23.55;4.65;;;6.50;99.90;;;;;;5041011;28;20136;-83
2022/11/24 07:56:33;;;;;;;24.08;6.07;;;6.30;99.90;;;;;;5036445;28;20370;-83
2022/11/24 07:58:59;;;;;;;16.15;4.50;;;6.40;99.90;;;;;;5020273;28;20127;-83
2022/11/24 08:01:24;;;;;;;20.88;5.18;;;6.30;99.90;;;;;;5035904;28;20041;-82
2022/11/24 08:03:50;;;;;;;23.08;5.28;;;6.40;99.90;;;;;;5052752;28;20115;-80
2022/11/24 08:06:17;;;;;;;22.23;4.40;;;6.40;99.90;;;;;;5063408;28;20056;-81
2022/11/24 08:08:43;;;;;;;18.00;4.47;;;6.60;99.90;;;;;;5044074;28;20057;-81
2022/11/24 08:11:14;;;;;;;20.05;4.72;;;6.40;99.90;;;;;;5072382;28;20044;-80
2022/11/24 08:13:39;;;;;;;19.48;4.32;;;6.60;99.90;;;;;;5039121;28;20045;-80
2022/11/24 08:16:06;;;;;;;18.05;5.22;;;6.40;99.90;;;;;;5055570;28;20393;-82
2022/11/24 08:18:33;;;;;;;16.42;4.38;;;6.40;99.90;;;;;;5072301;28;20398;-80
2022/11/24 08:20:59;;;;;;;20.10;4.63;;;6.50;99.90;;;;;;5056093;28;20048;-81
2022/11/24 08:23:24;;;;;;;20.73;4.65;;;6.60;99.90;;;;;;5038970;28;20055;-82
2022/11/24 08:25:50;;;;;;;19.25;5.60;;;6.60;99.90;;;;;;5065664;28;20484;-81
2022/11/24 08:28:16;;;;;;;21.20;5.05;;;6.80;99.90;;;;;;5053328;28;20047;-81
2022/11/24 08:30:41;;;;;;;17.55;5.03;;;6.80;99.90;;;;;;5046007;28;20058;-81
2022/11/24 08:33:07;;;;;;;21.50;5.20;;;7.90;99.90;;;;;;5062199;28;20582;-80
2022/11/24 08:35:37;;;;;;;27.67;6.10;;;7.00;99.90;;;;;;5044674;28;20123;-80
2022/11/24 08:38:03;;;;;;;17.73;5.10;;;7.00;99.90;;;;;;5063273;28;20088;-81
2022/11/24 08:40:28;;;;;;;17.50;5.28;;;7.20;99.90;;;;;;5030287;28;20477;-82
2022/11/24 08:42:58;;;;;;;18.13;5.07;;;8.50;99.90;;;;;;5026283;28;20051;-82
2022/11/24 08:45:24;;;;;;;22.02;5.60;;;7.40;99.90;;;;;;5028932;28;20496;-81
2022/11/24 08:47:53;;;;;;;16.02;5.40;;;8.10;99.90;;;;;;5027989;28;20072;-81
2022/11/24 08:50:19;;;;;;;17.05;6.43;;;7.80;99.90;;;;;;5049977;28;20056;-82
2022/11/24 08:52:45;;;;;;;14.05;5.75;;;8.20;99.90;;;;;;5052340;28;20049;-83
2022/11/24 08:55:10;;;;;;;20.30;5.72;;;8.40;99.90;;;;;;5018642;28;20053;-83
2022/11/24 08:57:36;;;;;;;19.65;5.50;;;8.80;99.90;;;;;;5050847;28;20041;-82
2022/11/24 09:00:06;;;;;;;16.02;5.15;;;9.10;99.90;;;;;;5022460;28;20044;-82
2022/11/24 09:02:31;;;;;;;15.63;4.75;;;9.20;99.90;;;;;;5026713;28;20045;-82
2022/11/24 09:04:57;;;;;;;14.13;5.10;;;9.40;99.90;;;;;;5028733;28;20400;-83
2022/11/24 09:07:23;;;;;;;15.90;4.72;;;9.70;99.90;;;;;;5026488;28;20044;-82
2022/11/24 09:09:48;;;;;;;15.85;4.43;;;9.70;99.90;;;;;;5028390;28;20143;-82
2022/11/24 09:12:14;;;;;;;16.02;4.60;;;9.70;99.90;;;;;;5026919;28;20493;-82
2022/11/24 09:14:39;;;;;;;17.90;5.05;;;9.70;99.90;;;;;;5028130;28;20516;-82
2022/11/24 09:17:05;;;;;;;15.40;4.45;;;9.40;99.90;;;;;;5028373;28;20049;-82
2022/11/24 09:19:31;;;;;;;14.43;5.13;;;9.20;99.90;;;;;;5042837;28;20044;-82
2022/11/24 09:21:56;;;;;;;11.82;4.13;;;9.00;99.90;;;;;;5045556;28;20041;-83
2022/11/24 09:24:22;;;;;;;10.75;4.25;;;9.10;99.90;;;;;;5028260;28;20041;-82
2022/11/24 09:26:48;;;;;;;10.82;4.15;;;9.00;99.90;;;;;;5033801;28;20393;-82
2022/11/24 09:29:16;;;;;;;10.35;4.32;;;8.80;99.90;;;;;;5045595;28;20390;-82
2022/11/24 09:31:41;;;;;;;18.27;3.92;;;8.50;99.90;;;;;;5026908;28;20052;-83
2022/11/24 09:34:09;;;;;;;12.90;4.20;;;8.90;99.90;;;;;;5045217;28;20155;-82
2022/11/24 09:36:35;;;;;;;10.25;3.72;;;8.90;99.90;;;;;;5027852;28;20055;-83
2022/11/24 09:39:01;;;;;;;12.05;4.45;;;9.10;99.90;;;;;;5044995;28;20033;-82
2022/11/24 09:41:52;;;;;;;10.38;3.78;;;9.10;99.90;;;;;;5026472;28;20379;-82
2022/11/24 09:44:44;;;;;;;9.48;3.47;;;9.00;99.90;;;;;;5021211;28;20056;-82
2022/11/24 09:47:48;;;;;;;11.05;4.20;;;8.80;99.90;;;;;;5071705;28;20162;-82
2022/11/24 09:50:39;;;;;;;12.77;4.15;;;8.80;99.90;;;;;;5053621;28;20110;-82
2022/11/24 09:53:11;;;;;;;8.32;3.15;;;8.80;99.90;;;;;;5066962;28;20481;-82
2022/11/24 09:55:39;;;;;;;11.60;3.38;;;8.90;99.90;;;;;;5053701;28;20056;-81
2022/11/24 09:58:26;;;;;;;7.68;2.92;;;8.90;99.90;;;;;;5070066;28;20114;-82
2022/11/24 10:00:52;;;;;;;9.93;2.70;;;8.90;99.90;;;;;;5053262;28;20056;-83
2022/11/24 10:03:42;;;;;;;7.55;2.72;;;8.80;99.90;;;;;;5017715;28;20053;-82
2022/11/24 10:06:29;;;;;;;7.65;2.75;;;8.80;99.90;;;;;;5034143;28;20048;-83
2022/11/24 10:09:10;;;;;;;6.65;2.60;;;8.80;99.90;;;;;;5017588;28;20041;-83
2022/11/24 10:11:46;;;;;;;4.97;2.53;;;8.80;99.90;;;;;;5033145;28;20150;-83
2022/11/24 10:14:22;;;;;;;5.32;2.10;;;8.90;99.90;;;;;;5017733;28;20503;-82
2022/11/24 10:17:07;;;;;;;7.47;2.78;;;8.90;99.90;;;;;;5033963;28;20049;-82
2022/11/24 10:19:55;;;;;;;7.82;2.50;;;9.10;99.90;;;;;;5033923;28;20063;-82
2022/11/24 10:22:30;;;;;;;5.55;2.30;;;9.50;99.90;;;;;;5033616;28;20053;-82
2022/11/24 10:25:02;;;;;;;5.10;2.08;;;9.60;99.90;;;;;;5017541;28;20052;-83
2022/11/24 10:27:33;;;;;;;4.43;2.30;;;9.50;99.90;;;;;;5017929;28;20518;-82
2022/11/24 10:29:58;;;;;;;5.85;2.30;;;9.40;99.90;;;;;;5035136;28;20119;-82
2022/11/24 10:32:32;;;;;;;4.93;2.53;;;9.40;99.90;;;;;;5020267;28;20127;-82
2022/11/24 10:34:59;;;;;;;5.95;2.75;;;9.30;99.90;;;;;;5035598;28;20088;-82
2022/11/24 10:37:29;;;;;;;5.15;2.55;;;9.40;99.90;;;;;;5017358;28;20128;-83
2022/11/24 10:40:24;;;;;;;5.28;2.40;;;9.40;99.90;;;;;;5033168;28;20025;-84
2022/11/24 10:42:51;;;;;;;6.05;2.55;;;9.40;99.90;;;;;;5057174;28;20057;-83
2022/11/24 10:45:21;;;;;;;7.45;2.72;;;9.40;99.90;;;;;;5044948;28;20635;-82
2022/11/24 10:47:46;;;;;;;4.30;2.13;;;9.40;99.90;;;;;;5041490;28;20127;-82
2022/11/24 10:50:19;;;;;;;8.57;2.92;;;9.60;99.90;;;;;;5032891;28;20140;-82
2022/11/24 10:53:04;;;;;;;6.95;3.17;;;9.40;99.90;;;;;;5033225;28;20048;-81
2022/11/24 10:55:55;;;;;;;5.47;3.47;;;9.50;99.90;;;;;;5041238;28;20045;-82
2022/11/24 10:58:28;;;;;;;6.22;2.70;;;9.40;99.90;;;;;;5042696;28;20044;-81
2022/11/24 11:00:54;;;;;;;7.03;2.90;;;9.30;99.90;;;;;;5027712;28;20048;-82
2022/11/24 11:03:27;;;;;;;5.97;3.17;;;9.30;99.90;;;;;;5061486;28;20110;-82
2022/11/24 11:05:54;;;;;;;5.18;2.88;;;9.30;99.90;;;;;;5045670;28;20504;-83
2022/11/24 11:08:20;;;;;;;6.28;2.83;;;9.40;99.90;;;;;;5030674;28;20110;-82
2022/11/24 11:10:48;;;;;;;6.15;2.97;;;9.40;99.90;;;;;;5023832;28;20056;-83
2022/11/24 11:13:23;;;;;;;6.88;3.40;;;9.40;99.90;;;;;;5040776;28;20114;-82
2022/11/24 11:15:49;;;;;;;9.18;3.60;;;9.40;99.90;;;;;;5057407;28;20115;-83
2022/11/24 11:18:15;;;;;;;7.20;3.38;;;9.40;99.90;;;;;;5062180;28;20131;-82
2022/11/24 11:20:49;;;;;;;6.55;3.60;;;9.50;99.90;;;;;;5035066;28;20120;-83
2022/11/24 11:23:19;;;;;;;6.78;3.63;;;9.50;99.90;;;;;;5046977;28;20132;-82
2022/11/24 11:25:44;;;;;;;7.57;3.65;;;9.60;99.90;;;;;;5057570;28;20496;-81
2022/11/24 11:28:17;;;;;;;8.75;3.63;;;9.60;99.90;;;;;;5049671;28;20053;-84
2022/11/24 11:31:18;;;;;;;8.75;3.45;;;9.70;99.90;;;;;;5037774;28;20049;-83
2022/11/24 11:33:52;;;;;;;8.15;3.38;;;9.90;99.90;;;;;;5020992;28;20057;-82
2022/11/24 11:36:18;;;;;;;9.20;3.72;;;10.10;99.90;;;;;;5036466;28;20052;-82
2022/11/24 11:38:44;;;;;;;7.28;3.30;;;10.10;99.90;;;;;;5024076;28;20067;-82
2022/11/24 11:41:17;;;;;;;8.00;3.35;;;10.20;99.90;;;;;;5039966;28;20045;-81
2022/11/24 11:43:44;;;;;;;8.10;3.53;;;10.30;99.90;;;;;;5056886;28;20060;-83
2022/11/24 11:46:16;;;;;;;8.95;3.42;;;10.30;99.90;;;;;;5039944;28;20253;-81
2022/11/24 11:48:45;;;;;;;10.88;4.00;;;10.40;99.90;;;;;;5040211;28;20101;-80
2022/11/24 11:51:26;;;;;;;8.20;3.50;;;10.40;99.90;;;;;;5056673;28;20424;-81
2022/11/24 11:54:36;;;;;;;8.95;3.55;;;10.40;99.90;;;;;;5053531;28;20085;-81
2022/11/24 11:57:10;;;;;;;9.88;3.83;;;10.50;99.90;;;;;;5017480;28;20102;-82
2022/11/24 12:00:14;;;;;;;12.07;3.85;;;10.50;99.90;;;;;;5030221;28;20052;-82
2022/11/24 12:02:45;;;;;;;10.02;3.47;;;10.60;99.90;;;;;;5037160;28;20076;-82
2022/11/24 12:05:28;;;;;;;7.97;3.45;;;10.50;99.90;;;;;;5038520;28;20492;-83
2022/11/24 12:08:07;;;;;;;11.63;4.15;;;10.60;99.90;;;;;;5065146;28;20067;-83
2022/11/24 12:10:42;;;;;;;10.32;4.03;;;10.60;99.90;;;;;;5045603;28;20481;-82
2022/11/24 12:13:07;;;;;;;9.85;3.30;;;10.60;99.90;;;;;;5031708;28;20048;-83
2022/11/24 12:15:47;;;;;;;12.40;3.70;;;10.70;99.90;;;;;;5041048;28;20048;-82
2022/11/24 12:18:34;;;;;;;6.43;3.45;;;10.70;99.90;;;;;;5029743;28;20067;-81
2022/11/24 12:21:09;;;;;;;8.50;2.92;;;10.70;99.90;;;;;;5052822;28;20084;-83
2022/11/24 12:23:47;;;;;;;8.25;3.50;;;10.80;99.90;;;;;;5043564;28;20044;-82
2022/11/24 12:26:16;;;;;;;6.40;3.15;;;10.70;99.90;;;;;;5062716;28;20434;-81
2022/11/24 12:28:57;;;;;;;10.10;3.58;;;10.70;99.90;;;;;;5045164;28;20047;-82
2022/11/24 12:31:50;;;;;;;11.10;3.13;;;10.70;99.90;;;;;;5044874;28;20040;-82
2022/11/24 12:34:31;;;;;;;9.60;3.53;;;10.70;99.90;;;;;;5045722;28;20143;-81
2022/11/24 12:37:23;;;;;;;11.75;3.17;;;10.70;99.90;;;;;;5032998;28;20044;-81
2022/11/24 12:39:55;;;;;;;9.18;3.45;;;10.60;99.90;;;;;;5031798;28;20095;-81
2022/11/24 12:42:29;;;;;;;9.23;3.65;;;10.70;99.90;;;;;;5049550;28;20047;-84
2022/11/24 12:45:08;;;;;;;7.75;3.35;;;10.60;99.90;;;;;;5056610;28;20090;-81
2022/11/24 12:48:02;;;;;;;10.68;3.65;;;10.70;99.90;;;;;;5070872;28;20040;-83
2022/11/24 12:50:28;;;;;;;10.98;3.63;;;10.60;99.90;;;;;;5049214;28;20061;-84
2022/11/24 12:52:59;;;;;;;10.45;3.63;;;10.70;99.90;;;;;;5038697;28;20041;-84
2022/11/24 12:55:25;;;;;;;10.60;3.15;;;10.60;99.90;;;;;;5023357;28;20435;-84
2022/11/24 12:58:33;;;;;;;11.43;3.22;;;10.70;99.90;;;;;;5038929;28;20407;-84
2022/11/24 13:01:20;;;;;;;11.00;2.60;;;10.70;99.90;;;;;;5034327;28;20091;-82
2022/11/24 13:03:52;;;;;;;11.32;3.20;;;10.60;99.90;;;;;;5057559;28;20128;-83